avis per tempestes more information blitzortung!


avis per Pluja more information rain snow radar


Visita la nostra xarxa de llocs de meteo:

Template documentation
and downloads

And another site



Thunderstorms From: 20-07-2018 17:00 Until: 21-07-2018 01:59 warning for: Thunderstorms Level: Yellow info button
Rain From: 20-07-2018 17:00 Until: 21-07-2018 01:59 warning for: Rain Level: Yellow info button

Pagina Historial Weather Underground text

Diari Resum Marc 18, 2016 Unitats:  Mètric    Imperial   Tant
« Previous Dia
SegĂźent Dia »
Diari Setmana Mensual Anual Personalitzada
  Maxima: Minima: Media:
Temperatura: -17.8 °C -15.8 °C -12.1 °C
Punt de rosada: -17.8 °C -17.6 °C -15.2 °C
Humitat: Humidity % 53 % 69 %
Wind Speed: 0 km/h 0 km/h 6.1 km/h
RĂ fegues de vent: 0 km/h - -
Vent:- - SSW
Pression baro: 0 hPa 34428.8 hPa -
Precipitacions: 0 mm    
Historical Graphs
 
 
Dades de taula per Marc 18, 2016
Temps Temperatura Punt de rosada Pression baro Vent Wind Speed RĂ fegues de vent Humitat Rainfall Rate (Hourly)
-17.8 °C -17.8 °C 0 hPa Calm     Humidity % 0 mm
00:10 -15.4 °C -17 °C 34533.8 hPa Calm     82 % 0 mm
00:20 -15.4 °C -17 °C 34533.8 hPa Calm     82 % 0 mm
00:30 -15.5 °C -17 °C 34533.8 hPa Calm     83 % 0 mm
00:40 -15.5 °C -17 °C 34533.8 hPa SSE 2.6 km/h 5.1 km/h 83 % 0 mm
00:50 -15.6 °C -17.1 °C 34533.8 hPa Calm   2.6 km/h 82 % 0 mm
01:00 -15.7 °C -17.2 °C 34496.6 hPa Calm     82 % 0 mm
01:10 -15.7 °C -17.3 °C 34496.6 hPa Calm     82 % 0 mm
01:20 -15.7 °C -17.3 °C 34496.6 hPa Calm   2.6 km/h 82 % 0 mm
01:30 -15.7 °C -17.2 °C 34533.8 hPa Calm     83 % 0 mm
01:40 -15.8 °C -17.3 °C 34533.8 hPa NE 2.6 km/h 5.1 km/h 82 % 0 mm
01:50 -15.8 °C -17.6 °C 34533.8 hPa West 5.1 km/h 5.1 km/h 80 % 0 mm
02:00 -15.6 °C -17.1 °C 34533.8 hPa Calm   5.1 km/h 82 % 0 mm
02:10 -15.6 °C -17.2 °C 34533.8 hPa SW 2.6 km/h 5.1 km/h 81 % 0 mm
02:20 -15.4 °C -17 °C 34533.8 hPa Calm   5.1 km/h 82 % 0 mm
02:30 -15.2 °C -16.8 °C 34533.8 hPa Calm   2.6 km/h 82 % 0 mm
02:40 -14.9 °C -16.4 °C 34533.8 hPa SSE 2.6 km/h 5.1 km/h 82 % 0 mm
02:50 -14.9 °C -16.4 °C 34533.8 hPa ENE 5.1 km/h 7.7 km/h 82 % 0 mm
03:00 -14.4 °C -16.1 °C 34533.8 hPa NE 2.6 km/h 5.1 km/h 81 % 0 mm
03:10 -14.3 °C -16.1 °C 34533.8 hPa NE 7.7 km/h 7.7 km/h 80 % 0 mm
03:20 -14.1 °C -16 °C 34533.8 hPa NNE 2.6 km/h 7.7 km/h 79 % 0 mm
03:30 -13.8 °C -15.8 °C 34533.8 hPa NNE 5.1 km/h 10.3 km/h 78 % 0 mm
03:40 -13.5 °C -15.5 °C 34533.8 hPa NE 5.1 km/h 7.7 km/h 78 % 0 mm
03:50 -13.4 °C -15.5 °C 34533.8 hPa ENE 7.7 km/h 10.3 km/h 77 % 0 mm
04:00 -13.2 °C -15.4 °C 34533.8 hPa ENE 7.7 km/h 10.3 km/h 76 % 0 mm
06:40 -10.2 °C -14.7 °C 34496.6 hPa SW 2.6 km/h 7.7 km/h 58 % 0 mm
06:50 -10.4 °C -14.9 °C 34496.6 hPa SW 2.6 km/h 10.3 km/h 58 % 0 mm
07:00 -10.4 °C -14.8 °C 34496.6 hPa SW 2.6 km/h 5.1 km/h 59 % 0 mm
07:10 -10.4 °C -14.8 °C 34496.6 hPa SW 2.6 km/h 5.1 km/h 59 % 0 mm
07:20 -10.2 °C -14.9 °C 34496.6 hPa SSW 7.7 km/h 15.6 km/h 56 % 0 mm
07:30 -9.9 °C -14.9 °C 34462.7 hPa SW 7.7 km/h 15.6 km/h 55 % 0 mm
07:40 -10 °C -15.1 °C 34462.7 hPa SW 7.7 km/h 20.8 km/h 54 % 0 mm
07:50 -10 °C -15.1 °C 34462.7 hPa SW 12.9 km/h 18.2 km/h 54 % 0 mm
08:00 -9.8 °C -14.9 °C 34462.7 hPa SW 15.6 km/h 15.6 km/h 54 % 0 mm
08:10 -9.7 °C -14.9 °C 34462.7 hPa SW 15.6 km/h 25.9 km/h 53 % 0 mm
08:20 -9.3 °C -14.6 °C 34462.7 hPa SW 15.6 km/h 20.8 km/h 53 % 0 mm
08:50 -9.8 °C -14.9 °C 34462.7 hPa SW 20.8 km/h 25.9 km/h 54 % 0 mm
09:00 -9.7 °C -14.7 °C 34462.7 hPa SW 7.7 km/h 28.5 km/h 55 % 0 mm
09:10 -9.6 °C -14.6 °C 34462.7 hPa SW 15.6 km/h 25.9 km/h 55 % 0 mm
09:20 -9.7 °C -14.6 °C 34462.7 hPa SW 7.7 km/h 28.5 km/h 55 % 0 mm
09:30 -9.5 °C -14.6 °C 34462.7 hPa WSW 15.6 km/h 20.8 km/h 54 % 0 mm
09:40 -10 °C -14.9 °C 34462.7 hPa WSW 18.2 km/h 28.5 km/h 55 % 0 mm
09:50 -9.9 °C -14.8 °C 34462.7 hPa SW 15.6 km/h 28.5 km/h 56 % 0 mm
10:03 -12.9 °C -15.2 °C 34533.8 hPa SW 9 km/h 9 km/h 76 % 0 mm
10:08 -12.9 °C -15.1 °C 34533.8 hPa WNW 3.1 km/h 3.7 km/h 76 % 0 mm
10:10 -10 °C -14.8 °C 34462.7 hPa SW 23.3 km/h 25.9 km/h 56 % 0 mm
10:13 -12.7 °C -15 °C 34533.8 hPa WSW 8.5 km/h 8.5 km/h 75 % 0 mm
10:18 -12.7 °C -15.2 °C 34533.8 hPa SW 9 km/h 9 km/h 74 % 0 mm
10:20 -10.2 °C -14.9 °C 34428.8 hPa SW 15.6 km/h 20.8 km/h 57 % 0 mm
10:23 -12.4 °C -15 °C 34533.8 hPa ESE 6.3 km/h 6.3 km/h 73 % 0 mm
10:28 -12.2 °C -14.8 °C 34533.8 hPa NNE 9 km/h 9 km/h 73 % 0 mm
10:33 -12.1 °C -14.9 °C 34533.8 hPa NE 6.3 km/h 6.3 km/h 71 % 0 mm
10:38 -11.9 °C -14.8 °C 34533.8 hPa ENE 5.1 km/h 5.1 km/h 70 % 0 mm
10:40 -10.7 °C -15 °C 34428.8 hPa SW 18.2 km/h 20.8 km/h 59 % 0 mm
10:43 -11.8 °C -14.7 °C 34533.8 hPa ESE 12.2 km/h 12.2 km/h 70 % 0 mm
10:48 -11.7 °C -14.6 °C 34533.8 hPa ESE 9 km/h 9 km/h 70 % 0 mm
10:50 -10.7 °C -14.9 °C 34462.7 hPa SW 15.6 km/h 23.3 km/h 60 % 0 mm
10:53 -11.6 °C -14.6 °C 34533.8 hPa NE 9 km/h 9 km/h 69 % 0 mm
10:58 -11.6 °C -14.6 °C 34533.8 hPa East 8 km/h 8 km/h 69 % 0 mm
11:03 -11.5 °C -14.4 °C 34533.8 hPa SW 6 km/h 6 km/h 70 % 0 mm
11:08 -11.3 °C -14.4 °C 34533.8 hPa South 6 km/h 6 km/h 69 % 0 mm
11:10 -11 °C -14.9 °C 34462.7 hPa SW 12.9 km/h 33.6 km/h 62 % 0 mm
11:13 -11.1 °C -14.3 °C 34533.8 hPa South 6.8 km/h 6.8 km/h 67 % 0 mm
11:18 -10.9 °C -14.3 °C 34533.8 hPa East 3.7 km/h   66 % 0 mm
11:20 -11.1 °C -14.9 °C 34462.7 hPa SW 15.6 km/h 23.3 km/h 62 % 0 mm
11:23 -11 °C -14.4 °C 34496.6 hPa South 9 km/h 9 km/h 66 % 0 mm
11:28 -10.7 °C -14.2 °C 34496.6 hPa SSE 11.9 km/h 11.9 km/h 66 % 0 mm
11:30 -11 °C -14.8 °C 34496.6 hPa SW 7.7 km/h 25.9 km/h 63 % 0 mm
11:33 -10.6 °C -14.1 °C 34496.6 hPa SSE 6.3 km/h 6.3 km/h 65 % 0 mm
11:38 -10.6 °C -14.2 °C 34533.8 hPa WSW 9 km/h 9 km/h 65 % 0 mm
11:40 -11.1 °C -14.8 °C 34496.6 hPa WSW 7.7 km/h 10.3 km/h 64 % 0 mm
11:43 -10.7 °C -14.5 °C 34533.8 hPa WSW 9 km/h 9 km/h 63 % 0 mm
11:48 -10.6 °C -14.3 °C 34533.8 hPa WSW 9 km/h 9 km/h 64 % 0 mm
11:50 -11.2 °C -14.8 °C 34462.7 hPa WSW 5.1 km/h 15.6 km/h 65 % 0 mm
11:53 -10.7 °C -14.5 °C 34533.8 hPa NNW 6 km/h 6 km/h 63 % 0 mm
11:58 -10.6 °C -14.5 °C 34533.8 hPa SSW 11.9 km/h 11.9 km/h 62 % 0 mm
12:00 -11.2 °C -14.6 °C 34462.7 hPa WSW 7.7 km/h 20.8 km/h 66 % 0 mm
12:03 -10.6 °C -15.1 °C 34533.8 hPa ESE 17.9 km/h 17.9 km/h 58 % 0 mm
12:08 -10.4 °C -14.9 °C 34533.8 hPa SSW 15 km/h 15 km/h 58 % 0 mm
12:10 -11.3 °C -14.6 °C 34462.7 hPa WSW 5.1 km/h 15.6 km/h 67 % 0 mm
12:13 -10.4 °C -14.9 °C 34533.8 hPa South 6.3 km/h 6.3 km/h 58 % 0 mm
12:18 -10.2 °C -14.9 °C 34533.8 hPa SSE 11.9 km/h 11.9 km/h 57 % 0 mm
12:23 -10.2 °C -14.7 °C 34496.6 hPa SSW 9 km/h 9 km/h 58 % 0 mm
12:28 -10.3 °C -14.8 °C 34496.6 hPa SW 6 km/h 6 km/h 58 % 0 mm
12:30 -11.5 °C -14.7 °C 34462.7 hPa SW 7.7 km/h 15.6 km/h 68 % 0 mm
12:32 -10.3 °C -14.8 °C 34496.6 hPa SW 9 km/h 9 km/h 58 % 0 mm
12:33 -10.3 °C -14.8 °C 34496.6 hPa SW 9 km/h 9 km/h 58 % 0 mm
12:38 -10.3 °C -14.8 °C 34496.6 hPa SW 9 km/h 9 km/h 58 % 0 mm
12:40 -11.5 °C -14.7 °C 34462.7 hPa SW 5.1 km/h 23.3 km/h 68 % 0 mm
12:50 -11.6 °C -14.7 °C 34462.7 hPa SW 12.9 km/h 15.6 km/h 69 % 0 mm
13:00 -11.7 °C -14.6 °C 34462.7 hPa SW 12.9 km/h 18.2 km/h 70 % 0 mm
13:10 -11.8 °C -14.7 °C 34462.7 hPa SW 7.7 km/h 10.3 km/h 70 % 0 mm
13:14 -10.3 °C -14.8 °C 34496.6 hPa SW 9 km/h 9 km/h 58 % 0 mm
13:20 -11.8 °C -14.6 °C 34462.7 hPa WSW 5.1 km/h 10.3 km/h 71 % 0 mm
13:30 -11.8 °C -14.8 °C 34462.7 hPa WSW 7.7 km/h 7.7 km/h 70 % 0 mm
13:31 -10.3 °C -14.8 °C 34496.6 hPa SW 9 km/h 9 km/h 58 % 0 mm
13:36 -10.3 °C -14.8 °C 34496.6 hPa SW 9 km/h 9 km/h 58 % 0 mm
13:40 -11.9 °C -14.7 °C 34462.7 hPa WSW 2.6 km/h 5.1 km/h 71 % 0 mm
13:50 -11.9 °C -14.8 °C 34462.7 hPa WSW 5.1 km/h 5.1 km/h 71 % 0 mm
19:56 -12 °C -14.8 °C 34462.7 hPa WSW 34.1 km/h 34.1 km/h 71 % 0 mm
20:01 -12.1 °C -14.8 °C 34462.7 hPa SW 6 km/h 6 km/h 71 % 0 mm
20:06 -12.1 °C -14.8 °C 34462.7 hPa SW 11.9 km/h 11.9 km/h 72 % 0 mm
20:11 -12.1 °C -14.8 °C 34462.7 hPa WSW 6 km/h 6 km/h 72 % 0 mm
20:16 -12.1 °C -14.8 °C 34462.7 hPa WSW 4.2 km/h   72 % 0 mm
20:26 -12.2 °C -14.8 °C 34496.6 hPa SW 3.1 km/h   72 % 0 mm
20:31 -12.2 °C -14.8 °C 34496.6 hPa SW 3.1 km/h 3.1 km/h 72 % 0 mm
20:36 -12.2 °C -14.9 °C 34496.6 hPa WSW 3.1 km/h 3.1 km/h 72 % 0 mm
20:41 -12.2 °C -14.9 °C 34496.6 hPa WSW 3.1 km/h 3.1 km/h 72 % 0 mm
20:46 -12.3 °C -14.9 °C 34496.6 hPa Calm     72 % 0 mm
20:51 -12.3 °C -14.9 °C 34496.6 hPa Calm     72 % 0 mm
20:56 -12.3 °C -15 °C 34462.7 hPa Calm     72 % 0 mm
21:01 -12.3 °C -14.9 °C 34462.7 hPa Calm     73 % 0 mm
21:06 -12.4 °C -14.9 °C 34462.7 hPa Calm     73 % 0 mm
21:11 -12.4 °C -15 °C 34496.6 hPa Calm     73 % 0 mm
21:16 -12.4 °C -15 °C 34496.6 hPa Calm     73 % 0 mm
21:21 -12.5 °C -15.1 °C 34496.6 hPa Calm     73 % 0 mm
21:26 -12.6 °C -15.2 °C 34496.6 hPa WSW 6 km/h 6 km/h 72 % 0 mm
21:36 -12.7 °C -15.2 °C 34496.6 hPa Calm     73 % 0 mm
21:41 -12.7 °C -15.2 °C 34496.6 hPa Calm     74 % 0 mm
21:46 -12.8 °C -15.2 °C 34496.6 hPa Calm     74 % 0 mm
21:51 -12.8 °C -15.2 °C 34496.6 hPa Calm     74 % 0 mm
21:56 -12.8 °C -15.2 °C 34496.6 hPa WSW 3.7 km/h 3.7 km/h 74 % 0 mm
22:01 -12.7 °C -15.2 °C 34496.6 hPa SW 3.1 km/h 3.1 km/h 74 % 0 mm
22:06 -12.7 °C -15.2 °C 34496.6 hPa SW 3.1 km/h   74 % 0 mm
22:11 -12.7 °C -15.1 °C 34496.6 hPa South 3.1 km/h   75 % 0 mm
22:16 -12.7 °C -15.1 °C 34496.6 hPa Calm     75 % 0 mm
22:21 -12.7 °C -15.1 °C 34496.6 hPa SE 3.1 km/h   75 % 0 mm
22:26 -12.7 °C -15.1 °C 34496.6 hPa Calm     75 % 0 mm
22:31 -12.7 °C -15 °C 34496.6 hPa Calm     75 % 0 mm
22:36 -12.7 °C -15 °C 34496.6 hPa SW 3.1 km/h 3.1 km/h 75 % 0 mm
22:41 -12.6 °C -14.8 °C 34496.6 hPa Calm     76 % 0 mm
22:46 -12.6 °C -14.9 °C 34496.6 hPa Calm     75 % 0 mm
22:51 -12.6 °C -14.9 °C 34496.6 hPa SW 2.3 km/h   75 % 0 mm
22:56 -12.6 °C -14.9 °C 34496.6 hPa SW 3.7 km/h 3.7 km/h 75 % 0 mm
23:01 -12.6 °C -14.9 °C 34496.6 hPa SW 3.1 km/h   75 % 0 mm
23:06 -12.6 °C -14.8 °C 34496.6 hPa Calm     76 % 0 mm
23:11 -12.5 °C -14.7 °C 34496.6 hPa East 3.1 km/h   76 % 0 mm
23:16 -12.5 °C -14.7 °C 34496.6 hPa Calm     76 % 0 mm
23:18 -12.5 °C -14.7 °C 34496.6 hPa Calm     76 % 0 mm
23:23 -12.5 °C -14.7 °C 34496.6 hPa Calm     76 % 0 mm
23:28 -12.5 °C -14.7 °C 34496.6 hPa Calm     76 % 0 mm
23:33 -12.4 °C -14.7 °C 34496.6 hPa East 2.3 km/h   76 % 0 mm
Meteo Sesrovires
Elogis d' Weather Underground - 2 mb

Guio original per  Jim McMurry - jmcmurry@mwt.net Adaptat per a la plantilla per  Wim van der Kuil - Leuven-Template.eu

Trobareu la nostra informacio del temps tambe a:

Weather Underground

AWEKAS